< < Back
Terminal Aerodrome Forecast


Current Version              Previous Versions:   1  2  3  4  5  6  7  8  9  

Terminal Aerodrome Forecast

450
FTUS44 KBMX 310039 AAA
TAFANB
TAF AMD
KANB 310039Z 3101/3124 28005KT P6SM VCTS SCT050CB SCT090
     FM310200 00000KT P6SM SCT250
      TEMPO 3110/3112 5SM BR
     FM311600 31005KT P6SM SCT050=

Latest METAR

234
SAUS70 KWBC 310200 RRF
MTRANB
METAR KANB 310153Z AUTO 20003KT 10SM CLR 24/17 A2995 RMK AO2 SLP132
T02390172


USA.gov is the U.S. government's official web portal to all federal, state and local government web resources and services.